sensor_id;sensor_type;location;lat;lon;timestamp;P1;durP1;ratioP1;P2;durP2;ratioP2
26612;SDS011;14248;57.652;11.908;2023-03-01T00:01:05;5.47;;;2.40;;
26612;SDS011;14248;57.652;11.908;2023-03-01T00:03:32;4.55;;;2.47;;
26612;SDS011;14248;57.652;11.908;2023-03-01T00:05:58;4.43;;;2.38;;
26612;SDS011;14248;57.652;11.908;2023-03-01T00:08:24;5.60;;;2.55;;
26612;SDS011;14248;57.652;11.908;2023-03-01T00:10:59;4.20;;;2.53;;
26612;SDS011;14248;57.652;11.908;2023-03-01T00:13:25;3.75;;;2.50;;
26612;SDS011;14248;57.652;11.908;2023-03-01T00:15:52;4.50;;;2.17;;
26612;SDS011;14248;57.652;11.908;2023-03-01T00:18:18;4.32;;;2.45;;
26612;SDS011;14248;57.652;11.908;2023-03-01T00:20:51;2.70;;;1.90;;
26612;SDS011;14248;57.652;11.908;2023-03-01T00:23:17;2.75;;;2.08;;
26612;SDS011;14248;57.652;11.908;2023-03-01T00:25:43;3.00;;;1.83;;
26612;SDS011;14248;57.652;11.908;2023-03-01T00:28:10;3.50;;;1.92;;
26612;SDS011;14248;57.652;11.908;2023-03-01T00:30:36;4.00;;;1.90;;
26612;SDS011;14248;57.652;11.908;2023-03-01T00:33:02;4.97;;;2.28;;
26612;SDS011;14248;57.652;11.908;2023-03-01T00:35:28;4.00;;;2.40;;
26612;SDS011;14248;57.652;11.908;2023-03-01T00:37:54;3.33;;;2.17;;
26612;SDS011;14248;57.652;11.908;2023-03-01T00:40:26;3.63;;;1.90;;
26612;SDS011;14248;57.652;11.908;2023-03-01T00:42:54;3.15;;;2.00;;
26612;SDS011;14248;57.652;11.908;2023-03-01T00:45:20;3.05;;;2.05;;
26612;SDS011;14248;57.652;11.908;2023-03-01T00:47:48;2.58;;;1.85;;
26612;SDS011;14248;57.652;11.908;2023-03-01T00:50:14;3.05;;;2.05;;
26612;SDS011;14248;57.652;11.908;2023-03-01T00:52:40;3.45;;;1.70;;
26612;SDS011;14248;57.652;11.908;2023-03-01T00:55:06;3.40;;;2.20;;
26612;SDS011;14248;57.652;11.908;2023-03-01T00:57:33;3.55;;;2.10;;
26612;SDS011;14248;57.652;11.908;2023-03-01T00:59:59;3.25;;;2.20;;
26612;SDS011;14248;57.652;11.908;2023-03-01T01:02:25;3.15;;;1.65;;
26612;SDS011;14248;57.652;11.908;2023-03-01T01:04:52;2.00;;;1.77;;
26612;SDS011;14248;57.652;11.908;2023-03-01T01:07:21;2.95;;;2.00;;
26612;SDS011;14248;57.652;11.908;2023-03-01T01:09:47;2.65;;;1.90;;
26612;SDS011;14248;57.652;11.908;2023-03-01T01:12:13;2.30;;;1.70;;
26612;SDS011;14248;57.652;11.908;2023-03-01T01:14:39;2.45;;;1.77;;
26612;SDS011;14248;57.652;11.908;2023-03-01T01:17:06;2.60;;;1.63;;
26612;SDS011;14248;57.652;11.908;2023-03-01T01:19:33;2.35;;;1.65;;
26612;SDS011;14248;57.652;11.908;2023-03-01T01:21:59;3.03;;;1.75;;
26612;SDS011;14248;57.652;11.908;2023-03-01T01:24:25;3.22;;;2.20;;
26612;SDS011;14248;57.652;11.908;2023-03-01T01:26:52;2.58;;;1.73;;
26612;SDS011;14248;57.652;11.908;2023-03-01T01:29:18;2.53;;;1.80;;
26612;SDS011;14248;57.652;11.908;2023-03-01T01:31:44;2.83;;;1.90;;
26612;SDS011;14248;57.652;11.908;2023-03-01T01:34:18;3.05;;;1.58;;
26612;SDS011;14248;57.652;11.908;2023-03-01T01:36:47;2.50;;;1.55;;
26612;SDS011;14248;57.652;11.908;2023-03-01T01:39:13;1.92;;;1.45;;
26612;SDS011;14248;57.652;11.908;2023-03-01T01:41:41;2.75;;;1.75;;
26612;SDS011;14248;57.652;11.908;2023-03-01T01:44:15;3.65;;;1.77;;
26612;SDS011;14248;57.652;11.908;2023-03-01T01:46:54;3.08;;;1.85;;
26612;SDS011;14248;57.652;11.908;2023-03-01T01:49:26;1.92;;;1.40;;
26612;SDS011;14248;57.652;11.908;2023-03-01T01:52:00;2.20;;;1.80;;
26612;SDS011;14248;57.652;11.908;2023-03-01T01:57:06;3.40;;;2.03;;
26612;SDS011;14248;57.652;11.908;2023-03-01T01:59:33;2.55;;;1.85;;
26612;SDS011;14248;57.652;11.908;2023-03-01T02:02:00;3.10;;;2.10;;
26612;SDS011;14248;57.652;11.908;2023-03-01T02:04:27;2.58;;;1.98;;
26612;SDS011;14248;57.652;11.908;2023-03-01T02:06:56;4.10;;;2.30;;
26612;SDS011;14248;57.652;11.908;2023-03-01T02:09:24;3.85;;;1.83;;
26612;SDS011;14248;57.652;11.908;2023-03-01T02:11:52;3.47;;;2.00;;
26612;SDS011;14248;57.652;11.908;2023-03-01T02:14:19;2.97;;;1.92;;
26612;SDS011;14248;57.652;11.908;2023-03-01T02:16:46;3.90;;;1.88;;
26612;SDS011;14248;57.652;11.908;2023-03-01T02:20:02;2.75;;;1.58;;
26612;SDS011;14248;57.652;11.908;2023-03-01T02:22:12;3.38;;;1.88;;
26612;SDS011;14248;57.652;11.908;2023-03-01T02:27:25;3.15;;;1.88;;
26612;SDS011;14248;57.652;11.908;2023-03-01T02:29:53;2.17;;;1.70;;
26612;SDS011;14248;57.652;11.908;2023-03-01T02:32:19;2.90;;;1.48;;
26612;SDS011;14248;57.652;11.908;2023-03-01T02:34:51;2.53;;;1.90;;
26612;SDS011;14248;57.652;11.908;2023-03-01T02:37:17;1.90;;;1.65;;
26612;SDS011;14248;57.652;11.908;2023-03-01T02:39:59;2.15;;;1.73;;
26612;SDS011;14248;57.652;11.908;2023-03-01T02:42:33;3.15;;;1.90;;
26612;SDS011;14248;57.652;11.908;2023-03-01T02:45:01;4.28;;;2.03;;
26612;SDS011;14248;57.652;11.908;2023-03-01T02:47:27;2.55;;;1.60;;
26612;SDS011;14248;57.652;11.908;2023-03-01T02:49:53;1.80;;;1.20;;
26612;SDS011;14248;57.652;11.908;2023-03-01T02:57:18;3.17;;;1.80;;
26612;SDS011;14248;57.652;11.908;2023-03-01T02:59:44;4.07;;;2.10;;
26612;SDS011;14248;57.652;11.908;2023-03-01T03:02:21;3.63;;;2.13;;
26612;SDS011;14248;57.652;11.908;2023-03-01T03:05:05;3.70;;;1.90;;
26612;SDS011;14248;57.652;11.908;2023-03-01T03:07:33;2.30;;;1.52;;
26612;SDS011;14248;57.652;11.908;2023-03-01T03:10:00;3.05;;;1.90;;
26612;SDS011;14248;57.652;11.908;2023-03-01T03:12:27;2.33;;;1.70;;
26612;SDS011;14248;57.652;11.908;2023-03-01T03:14:53;5.32;;;2.00;;
26612;SDS011;14248;57.652;11.908;2023-03-01T03:17:19;3.97;;;2.10;;
26612;SDS011;14248;57.652;11.908;2023-03-01T03:19:45;2.45;;;1.80;;
26612;SDS011;14248;57.652;11.908;2023-03-01T03:22:11;3.67;;;2.00;;
26612;SDS011;14248;57.652;11.908;2023-03-01T03:24:38;5.45;;;1.88;;
26612;SDS011;14248;57.652;11.908;2023-03-01T03:27:04;3.72;;;2.63;;
26612;SDS011;14248;57.652;11.908;2023-03-01T03:29:31;4.55;;;2.63;;
26612;SDS011;14248;57.652;11.908;2023-03-01T03:31:57;5.38;;;2.20;;
26612;SDS011;14248;57.652;11.908;2023-03-01T03:34:24;3.65;;;2.10;;
26612;SDS011;14248;57.652;11.908;2023-03-01T03:36:54;3.20;;;2.40;;
26612;SDS011;14248;57.652;11.908;2023-03-01T03:39:25;3.90;;;2.53;;
26612;SDS011;14248;57.652;11.908;2023-03-01T03:41:52;2.83;;;2.10;;
26612;SDS011;14248;57.652;11.908;2023-03-01T03:44:18;4.05;;;2.05;;
26612;SDS011;14248;57.652;11.908;2023-03-01T03:46:44;4.80;;;2.00;;
26612;SDS011;14248;57.652;11.908;2023-03-01T03:49:10;4.47;;;2.00;;
26612;SDS011;14248;57.652;11.908;2023-03-01T03:51:36;2.20;;;1.65;;
26612;SDS011;14248;57.652;11.908;2023-03-01T03:54:02;3.90;;;1.85;;
26612;SDS011;14248;57.652;11.908;2023-03-01T03:56:29;2.78;;;2.00;;
26612;SDS011;14248;57.652;11.908;2023-03-01T03:58:55;2.75;;;2.03;;
26612;SDS011;14248;57.652;11.908;2023-03-01T04:01:21;2.83;;;1.83;;
26612;SDS011;14248;57.652;11.908;2023-03-01T04:03:47;2.30;;;1.55;;
26612;SDS011;14248;57.652;11.908;2023-03-01T04:06:13;2.22;;;1.50;;
26612;SDS011;14248;57.652;11.908;2023-03-01T04:08:40;4.18;;;1.73;;
26612;SDS011;14248;57.652;11.908;2023-03-01T04:11:06;4.20;;;1.90;;
26612;SDS011;14248;57.652;11.908;2023-03-01T04:13:51;2.72;;;1.67;;
26612;SDS011;14248;57.652;11.908;2023-03-01T04:16:18;3.22;;;1.75;;
26612;SDS011;14248;57.652;11.908;2023-03-01T04:18:44;4.07;;;2.20;;
26612;SDS011;14248;57.652;11.908;2023-03-01T04:21:11;3.25;;;2.22;;
26612;SDS011;14248;57.652;11.908;2023-03-01T04:23:37;2.47;;;1.70;;
26612;SDS011;14248;57.652;11.908;2023-03-01T04:26:03;2.65;;;2.00;;
26612;SDS011;14248;57.652;11.908;2023-03-01T04:30:56;3.85;;;2.53;;
26612;SDS011;14248;57.652;11.908;2023-03-01T04:33:23;5.72;;;2.80;;
26612;SDS011;14248;57.652;11.908;2023-03-01T04:35:50;5.57;;;2.92;;
26612;SDS011;14248;57.652;11.908;2023-03-01T04:38:17;6.20;;;2.80;;
26612;SDS011;14248;57.652;11.908;2023-03-01T04:40:44;3.80;;;2.60;;
26612;SDS011;14248;57.652;11.908;2023-03-01T04:43:11;3.35;;;2.30;;
26612;SDS011;14248;57.652;11.908;2023-03-01T04:45:40;4.30;;;2.30;;
26612;SDS011;14248;57.652;11.908;2023-03-01T04:48:06;4.03;;;2.58;;
26612;SDS011;14248;57.652;11.908;2023-03-01T04:50:34;3.03;;;2.38;;
26612;SDS011;14248;57.652;11.908;2023-03-01T04:53:00;3.72;;;2.50;;
26612;SDS011;14248;57.652;11.908;2023-03-01T04:55:27;5.20;;;2.72;;
26612;SDS011;14248;57.652;11.908;2023-03-01T04:57:53;3.80;;;2.55;;
26612;SDS011;14248;57.652;11.908;2023-03-01T05:00:20;3.38;;;2.42;;
26612;SDS011;14248;57.652;11.908;2023-03-01T05:05:13;5.20;;;2.47;;
26612;SDS011;14248;57.652;11.908;2023-03-01T05:07:39;4.30;;;2.28;;
26612;SDS011;14248;57.652;11.908;2023-03-01T05:10:05;4.35;;;2.58;;
26612;SDS011;14248;57.652;11.908;2023-03-01T05:12:32;4.18;;;2.47;;
26612;SDS011;14248;57.652;11.908;2023-03-01T05:14:58;3.63;;;2.30;;
26612;SDS011;14248;57.652;11.908;2023-03-01T05:17:24;5.22;;;2.20;;
26612;SDS011;14248;57.652;11.908;2023-03-01T05:19:50;5.75;;;1.95;;
26612;SDS011;14248;57.652;11.908;2023-03-01T05:22:16;2.67;;;1.90;;
26612;SDS011;14248;57.652;11.908;2023-03-01T05:24:44;3.97;;;2.30;;
26612;SDS011;14248;57.652;11.908;2023-03-01T05:27:11;2.97;;;2.10;;
26612;SDS011;14248;57.652;11.908;2023-03-01T05:29:38;4.05;;;2.30;;
26612;SDS011;14248;57.652;11.908;2023-03-01T05:32:05;3.85;;;2.10;;
26612;SDS011;14248;57.652;11.908;2023-03-01T05:34:32;3.25;;;2.58;;
26612;SDS011;14248;57.652;11.908;2023-03-01T05:36:58;5.72;;;2.60;;
26612;SDS011;14248;57.652;11.908;2023-03-01T05:39:25;3.25;;;2.25;;
26612;SDS011;14248;57.652;11.908;2023-03-01T05:41:52;3.15;;;2.25;;
26612;SDS011;14248;57.652;11.908;2023-03-01T05:44:19;3.20;;;2.40;;
26612;SDS011;14248;57.652;11.908;2023-03-01T05:46:45;2.08;;;1.70;;
26612;SDS011;14248;57.652;11.908;2023-03-01T05:49:11;2.45;;;1.67;;
26612;SDS011;14248;57.652;11.908;2023-03-01T05:51:41;1.63;;;1.40;;
26612;SDS011;14248;57.652;11.908;2023-03-01T05:54:08;4.00;;;2.35;;
26612;SDS011;14248;57.652;11.908;2023-03-01T05:56:34;13.65;;;6.95;;
26612;SDS011;14248;57.652;11.908;2023-03-01T05:59:01;22.77;;;11.23;;
26612;SDS011;14248;57.652;11.908;2023-03-01T06:01:27;20.65;;;9.40;;
26612;SDS011;14248;57.652;11.908;2023-03-01T06:03:54;15.73;;;7.18;;
26612;SDS011;14248;57.652;11.908;2023-03-01T06:06:21;10.55;;;5.80;;
26612;SDS011;14248;57.652;11.908;2023-03-01T06:08:47;9.10;;;4.70;;
26612;SDS011;14248;57.652;11.908;2023-03-01T06:11:15;7.70;;;4.13;;
26612;SDS011;14248;57.652;11.908;2023-03-01T06:13:44;5.80;;;3.30;;
26612;SDS011;14248;57.652;11.908;2023-03-01T06:16:11;6.45;;;3.63;;
26612;SDS011;14248;57.652;11.908;2023-03-01T06:18:37;6.63;;;2.70;;
26612;SDS011;14248;57.652;11.908;2023-03-01T06:21:04;6.38;;;2.85;;
26612;SDS011;14248;57.652;11.908;2023-03-01T06:23:30;3.90;;;2.00;;
26612;SDS011;14248;57.652;11.908;2023-03-01T06:25:56;2.67;;;1.70;;
26612;SDS011;14248;57.652;11.908;2023-03-01T06:28:23;3.70;;;1.65;;
26612;SDS011;14248;57.652;11.908;2023-03-01T06:30:50;2.63;;;1.63;;
26612;SDS011;14248;57.652;11.908;2023-03-01T06:33:18;3.65;;;2.05;;
26612;SDS011;14248;57.652;11.908;2023-03-01T06:35:45;2.88;;;2.13;;
26612;SDS011;14248;57.652;11.908;2023-03-01T06:38:12;3.15;;;1.65;;
26612;SDS011;14248;57.652;11.908;2023-03-01T06:40:43;4.15;;;2.20;;
26612;SDS011;14248;57.652;11.908;2023-03-01T06:43:09;3.42;;;1.90;;
26612;SDS011;14248;57.652;11.908;2023-03-01T06:45:36;4.22;;;2.28;;
26612;SDS011;14248;57.652;11.908;2023-03-01T06:48:03;5.82;;;2.90;;
26612;SDS011;14248;57.652;11.908;2023-03-01T06:50:29;5.60;;;3.20;;
26612;SDS011;14248;57.652;11.908;2023-03-01T06:52:57;12.45;;;5.72;;
26612;SDS011;14248;57.652;11.908;2023-03-01T06:55:23;10.48;;;4.63;;
26612;SDS011;14248;57.652;11.908;2023-03-01T06:57:54;9.07;;;4.32;;
26612;SDS011;14248;57.652;11.908;2023-03-01T07:00:21;8.00;;;4.13;;
26612;SDS011;14248;57.652;11.908;2023-03-01T07:02:47;8.20;;;3.38;;
26612;SDS011;14248;57.652;11.908;2023-03-01T07:05:13;10.43;;;3.50;;
26612;SDS011;14248;57.652;11.908;2023-03-01T07:07:39;6.93;;;3.25;;
26612;SDS011;14248;57.652;11.908;2023-03-01T07:10:05;7.10;;;2.85;;
26612;SDS011;14248;57.652;11.908;2023-03-01T07:12:32;5.82;;;2.90;;
26612;SDS011;14248;57.652;11.908;2023-03-01T07:14:58;5.97;;;2.63;;
26612;SDS011;14248;57.652;11.908;2023-03-01T07:17:24;7.18;;;3.10;;
26612;SDS011;14248;57.652;11.908;2023-03-01T07:19:50;5.20;;;2.33;;
26612;SDS011;14248;57.652;11.908;2023-03-01T07:22:16;6.57;;;2.47;;
26612;SDS011;14248;57.652;11.908;2023-03-01T07:24:43;5.38;;;2.38;;
26612;SDS011;14248;57.652;11.908;2023-03-01T07:27:09;3.83;;;2.33;;
26612;SDS011;14248;57.652;11.908;2023-03-01T07:29:35;3.55;;;2.17;;
26612;SDS011;14248;57.652;11.908;2023-03-01T07:32:02;3.97;;;2.25;;
26612;SDS011;14248;57.652;11.908;2023-03-01T07:34:28;3.72;;;1.90;;
26612;SDS011;14248;57.652;11.908;2023-03-01T07:36:54;3.90;;;1.75;;
26612;SDS011;14248;57.652;11.908;2023-03-01T07:39:20;1.95;;;1.30;;
26612;SDS011;14248;57.652;11.908;2023-03-01T07:41:48;2.22;;;1.45;;
26612;SDS011;14248;57.652;11.908;2023-03-01T07:44:14;3.20;;;1.60;;
26612;SDS011;14248;57.652;11.908;2023-03-01T07:46:41;2.40;;;1.33;;
26612;SDS011;14248;57.652;11.908;2023-03-01T07:49:07;4.20;;;1.42;;
26612;SDS011;14248;57.652;11.908;2023-03-01T07:51:33;4.00;;;1.40;;
26612;SDS011;14248;57.652;11.908;2023-03-01T07:53:59;1.98;;;1.08;;
26612;SDS011;14248;57.652;11.908;2023-03-01T07:56:25;3.40;;;1.15;;
26612;SDS011;14248;57.652;11.908;2023-03-01T07:58:51;1.33;;;1.00;;
26612;SDS011;14248;57.652;11.908;2023-03-01T08:01:18;2.78;;;1.30;;
26612;SDS011;14248;57.652;11.908;2023-03-01T08:03:44;1.90;;;1.15;;
26612;SDS011;14248;57.652;11.908;2023-03-01T08:06:12;2.78;;;1.30;;
26612;SDS011;14248;57.652;11.908;2023-03-01T08:08:38;1.65;;;0.95;;
26612;SDS011;14248;57.652;11.908;2023-03-01T08:11:10;3.42;;;1.20;;
26612;SDS011;14248;57.652;11.908;2023-03-01T08:13:36;2.03;;;1.13;;
26612;SDS011;14248;57.652;11.908;2023-03-01T08:16:03;2.17;;;1.00;;
26612;SDS011;14248;57.652;11.908;2023-03-01T08:18:30;1.85;;;0.75;;
26612;SDS011;14248;57.652;11.908;2023-03-01T08:21:01;1.10;;;0.80;;
26612;SDS011;14248;57.652;11.908;2023-03-01T08:23:27;1.38;;;0.88;;
26612;SDS011;14248;57.652;11.908;2023-03-01T08:25:55;1.40;;;0.75;;
26612;SDS011;14248;57.652;11.908;2023-03-01T08:28:23;1.27;;;0.60;;
26612;SDS011;14248;57.652;11.908;2023-03-01T08:30:49;1.10;;;0.77;;
26612;SDS011;14248;57.652;11.908;2023-03-01T08:33:17;2.05;;;0.90;;
26612;SDS011;14248;57.652;11.908;2023-03-01T08:35:43;1.23;;;0.80;;
26612;SDS011;14248;57.652;11.908;2023-03-01T08:38:09;1.65;;;0.70;;
26612;SDS011;14248;57.652;11.908;2023-03-01T08:40:36;0.82;;;0.70;;
26612;SDS011;14248;57.652;11.908;2023-03-01T08:43:03;0.70;;;0.60;;
26612;SDS011;14248;57.652;11.908;2023-03-01T08:45:29;1.55;;;0.60;;
26612;SDS011;14248;57.652;11.908;2023-03-01T08:47:55;2.80;;;0.60;;
26612;SDS011;14248;57.652;11.908;2023-03-01T08:50:21;0.95;;;0.70;;
26612;SDS011;14248;57.652;11.908;2023-03-01T08:52:49;0.80;;;0.60;;
26612;SDS011;14248;57.652;11.908;2023-03-01T08:55:15;4.00;;;0.98;;
26612;SDS011;14248;57.652;11.908;2023-03-01T08:57:42;0.60;;;0.40;;
26612;SDS011;14248;57.652;11.908;2023-03-01T09:00:08;1.15;;;0.63;;
26612;SDS011;14248;57.652;11.908;2023-03-01T09:02:37;1.08;;;0.47;;
26612;SDS011;14248;57.652;11.908;2023-03-01T09:05:03;0.65;;;0.45;;
26612;SDS011;14248;57.652;11.908;2023-03-01T09:07:29;0.60;;;0.50;;
26612;SDS011;14248;57.652;11.908;2023-03-01T09:09:56;0.60;;;0.30;;
26612;SDS011;14248;57.652;11.908;2023-03-01T09:12:22;1.05;;;0.30;;
26612;SDS011;14248;57.652;11.908;2023-03-01T09:14:50;0.80;;;0.30;;
26612;SDS011;14248;57.652;11.908;2023-03-01T09:17:16;0.60;;;0.30;;
26612;SDS011;14248;57.652;11.908;2023-03-01T09:19:42;2.17;;;1.10;;
26612;SDS011;14248;57.652;11.908;2023-03-01T09:22:08;0.70;;;0.30;;
26612;SDS011;14248;57.652;11.908;2023-03-01T09:24:34;0.88;;;0.40;;
26612;SDS011;14248;57.652;11.908;2023-03-01T09:27:01;1.42;;;0.40;;
26612;SDS011;14248;57.652;11.908;2023-03-01T09:29:27;0.68;;;0.20;;
26612;SDS011;14248;57.652;11.908;2023-03-01T09:31:54;1.45;;;0.30;;
26612;SDS011;14248;57.652;11.908;2023-03-01T09:34:20;1.05;;;0.40;;
26612;SDS011;14248;57.652;11.908;2023-03-01T09:36:48;0.63;;;0.38;;
26612;SDS011;14248;57.652;11.908;2023-03-01T09:39:15;0.75;;;0.30;;
26612;SDS011;14248;57.652;11.908;2023-03-01T09:46:50;1.38;;;0.52;;
26612;SDS011;14248;57.652;11.908;2023-03-01T09:49:23;0.80;;;0.38;;
26612;SDS011;14248;57.652;11.908;2023-03-01T09:51:55;1.17;;;0.40;;
26612;SDS011;14248;57.652;11.908;2023-03-01T09:54:22;0.40;;;0.30;;
26612;SDS011;14248;57.652;11.908;2023-03-01T09:59:31;1.13;;;0.28;;
26612;SDS011;14248;57.652;11.908;2023-03-01T10:02:00;0.95;;;0.30;;
26612;SDS011;14248;57.652;11.908;2023-03-01T10:09:38;0.63;;;0.30;;
26612;SDS011;14248;57.652;11.908;2023-03-01T10:12:07;0.32;;;0.20;;
26612;SDS011;14248;57.652;11.908;2023-03-01T10:14:46;1.17;;;0.40;;
26612;SDS011;14248;57.652;11.908;2023-03-01T10:19:41;0.80;;;0.50;;
26612;SDS011;14248;57.652;11.908;2023-03-01T10:24:53;0.75;;;0.50;;
26612;SDS011;14248;57.652;11.908;2023-03-01T10:32:19;2.25;;;0.40;;
26612;SDS011;14248;57.652;11.908;2023-03-01T10:34:46;1.13;;;0.50;;
26612;SDS011;14248;57.652;11.908;2023-03-01T10:37:16;0.70;;;0.30;;
26612;SDS011;14248;57.652;11.908;2023-03-01T10:40:24;0.63;;;0.22;;
26612;SDS011;14248;57.652;11.908;2023-03-01T10:42:47;3.05;;;0.45;;
26612;SDS011;14248;57.652;11.908;2023-03-01T10:45:25;0.65;;;0.30;;
26612;SDS011;14248;57.652;11.908;2023-03-01T10:53:37;2.65;;;0.52;;
26612;SDS011;14248;57.652;11.908;2023-03-01T10:56:08;2.35;;;0.30;;
26612;SDS011;14248;57.652;11.908;2023-03-01T10:58:36;3.05;;;0.50;;
26612;SDS011;14248;57.652;11.908;2023-03-01T11:01:04;1.02;;;0.40;;
26612;SDS011;14248;57.652;11.908;2023-03-01T11:03:35;1.17;;;0.40;;
26612;SDS011;14248;57.652;11.908;2023-03-01T11:11:04;0.50;;;0.30;;
26612;SDS011;14248;57.652;11.908;2023-03-01T11:13:30;0.73;;;0.40;;
26612;SDS011;14248;57.652;11.908;2023-03-01T11:16:03;0.68;;;0.40;;
26612;SDS011;14248;57.652;11.908;2023-03-01T11:20:58;1.40;;;0.40;;
26612;SDS011;14248;57.652;11.908;2023-03-01T11:23:25;3.28;;;0.60;;
26612;SDS011;14248;57.652;11.908;2023-03-01T11:26:01;1.17;;;0.40;;
26612;SDS011;14248;57.652;11.908;2023-03-01T11:28:29;3.97;;;0.57;;
26612;SDS011;14248;57.652;11.908;2023-03-01T11:30:56;1.00;;;0.32;;
26612;SDS011;14248;57.652;11.908;2023-03-01T11:35:50;4.75;;;0.70;;
26612;SDS011;14248;57.652;11.908;2023-03-01T11:38:24;1.88;;;0.60;;
26612;SDS011;14248;57.652;11.908;2023-03-01T11:40:52;2.25;;;0.40;;
26612;SDS011;14248;57.652;11.908;2023-03-01T11:43:23;1.73;;;0.40;;
26612;SDS011;14248;57.652;11.908;2023-03-01T11:46:02;1.38;;;0.40;;
26612;SDS011;14248;57.652;11.908;2023-03-01T11:51:37;2.28;;;0.40;;
26612;SDS011;14248;57.652;11.908;2023-03-01T11:56:31;3.55;;;0.80;;
26612;SDS011;14248;57.652;11.908;2023-03-01T11:59:03;2.40;;;0.38;;
26612;SDS011;14248;57.652;11.908;2023-03-01T12:06:57;3.40;;;0.47;;
26612;SDS011;14248;57.652;11.908;2023-03-01T12:17:32;4.00;;;0.60;;
26612;SDS011;14248;57.652;11.908;2023-03-01T12:20:15;1.85;;;0.68;;
26612;SDS011;14248;57.652;11.908;2023-03-01T12:25:34;2.92;;;0.40;;
26612;SDS011;14248;57.652;11.908;2023-03-01T12:33:55;1.17;;;0.43;;
26612;SDS011;14248;57.652;11.908;2023-03-01T12:47:05;0.85;;;0.28;;
26612;SDS011;14248;57.652;11.908;2023-03-01T12:54:45;1.48;;;0.20;;
26612;SDS011;14248;57.652;11.908;2023-03-01T12:57:14;0.28;;;0.00;;
26612;SDS011;14248;57.652;11.908;2023-03-01T13:02:18;2.72;;;0.30;;
26612;SDS011;14248;57.652;11.908;2023-03-01T13:04:54;2.33;;;0.32;;
26612;SDS011;14248;57.652;11.908;2023-03-01T13:07:44;0.82;;;0.30;;
26612;SDS011;14248;57.652;11.908;2023-03-01T13:13:30;3.45;;;0.35;;
26612;SDS011;14248;57.652;11.908;2023-03-01T13:15:56;2.55;;;0.28;;
26612;SDS011;14248;57.652;11.908;2023-03-01T13:18:42;0.95;;;0.20;;
26612;SDS011;14248;57.652;11.908;2023-03-01T13:21:13;1.08;;;0.32;;
26612;SDS011;14248;57.652;11.908;2023-03-01T13:26:24;2.25;;;0.30;;
26612;SDS011;14248;57.652;11.908;2023-03-01T13:28:51;0.82;;;0.30;;
26612;SDS011;14248;57.652;11.908;2023-03-01T13:33:59;0.70;;;0.30;;
26612;SDS011;14248;57.652;11.908;2023-03-01T13:57:44;2.10;;;0.98;;
26612;SDS011;14248;57.652;11.908;2023-03-01T14:00:27;4.03;;;1.02;;
26612;SDS011;14248;57.652;11.908;2023-03-01T14:03:14;4.70;;;1.10;;
26612;SDS011;14248;57.652;11.908;2023-03-01T14:05:57;4.25;;;1.08;;
26612;SDS011;14248;57.652;11.908;2023-03-01T14:08:24;4.97;;;1.08;;
26612;SDS011;14248;57.652;11.908;2023-03-01T14:11:06;1.73;;;0.70;;
26612;SDS011;14248;57.652;11.908;2023-03-01T14:19:18;3.38;;;0.77;;
26612;SDS011;14248;57.652;11.908;2023-03-01T14:24:29;0.47;;;0.40;;
26612;SDS011;14248;57.652;11.908;2023-03-01T14:27:00;1.55;;;0.40;;
26612;SDS011;14248;57.652;11.908;2023-03-01T14:29:28;1.88;;;0.50;;
26612;SDS011;14248;57.652;11.908;2023-03-01T14:32:20;2.60;;;0.47;;
26612;SDS011;14248;57.652;11.908;2023-03-01T14:34:49;2.83;;;0.50;;
26612;SDS011;14248;57.652;11.908;2023-03-01T14:37:27;3.65;;;0.80;;
26612;SDS011;14248;57.652;11.908;2023-03-01T14:39:58;1.45;;;0.52;;
26612;SDS011;14248;57.652;11.908;2023-03-01T14:42:27;4.22;;;0.60;;
26612;SDS011;14248;57.652;11.908;2023-03-01T14:44:55;2.70;;;0.70;;
26612;SDS011;14248;57.652;11.908;2023-03-01T14:47:25;1.73;;;0.55;;
26612;SDS011;14248;57.652;11.908;2023-03-01T14:50:05;4.75;;;0.40;;
26612;SDS011;14248;57.652;11.908;2023-03-01T14:52:45;2.00;;;0.50;;
26612;SDS011;14248;57.652;11.908;2023-03-01T14:55:15;1.10;;;0.30;;
26612;SDS011;14248;57.652;11.908;2023-03-01T14:57:46;2.53;;;0.55;;
26612;SDS011;14248;57.652;11.908;2023-03-01T15:00:26;2.53;;;0.57;;
26612;SDS011;14248;57.652;11.908;2023-03-01T15:02:55;3.25;;;0.57;;
26612;SDS011;14248;57.652;11.908;2023-03-01T15:07:56;5.28;;;0.70;;
26612;SDS011;14248;57.652;11.908;2023-03-01T15:10:32;4.43;;;0.70;;
26612;SDS011;14248;57.652;11.908;2023-03-01T15:13:19;6.82;;;0.75;;
26612;SDS011;14248;57.652;11.908;2023-03-01T15:15:48;4.68;;;1.02;;
26612;SDS011;14248;57.652;11.908;2023-03-01T15:18:26;4.85;;;1.00;;
26612;SDS011;14248;57.652;11.908;2023-03-01T15:20:54;2.10;;;0.77;;
26612;SDS011;14248;57.652;11.908;2023-03-01T15:23:22;2.10;;;0.70;;
26612;SDS011;14248;57.652;11.908;2023-03-01T15:25:50;1.67;;;0.70;;
26612;SDS011;14248;57.652;11.908;2023-03-01T15:28:28;2.00;;;0.77;;
26612;SDS011;14248;57.652;11.908;2023-03-01T15:31:18;1.65;;;1.05;;
26612;SDS011;14248;57.652;11.908;2023-03-01T15:33:51;2.13;;;1.20;;
26612;SDS011;14248;57.652;11.908;2023-03-01T15:41:56;1.48;;;0.93;;
26612;SDS011;14248;57.652;11.908;2023-03-01T15:44:30;3.40;;;0.93;;
26612;SDS011;14248;57.652;11.908;2023-03-01T15:47:04;4.03;;;0.90;;
26612;SDS011;14248;57.652;11.908;2023-03-01T15:49:58;1.55;;;0.80;;
26612;SDS011;14248;57.652;11.908;2023-03-01T15:54:57;4.13;;;1.58;;
26612;SDS011;14248;57.652;11.908;2023-03-01T15:57:23;3.72;;;0.80;;
26612;SDS011;14248;57.652;11.908;2023-03-01T15:59:50;6.72;;;1.50;;
26612;SDS011;14248;57.652;11.908;2023-03-01T16:04:47;2.15;;;0.90;;
26612;SDS011;14248;57.652;11.908;2023-03-01T16:07:16;3.83;;;1.05;;
26612;SDS011;14248;57.652;11.908;2023-03-01T16:09:44;3.58;;;1.20;;
26612;SDS011;14248;57.652;11.908;2023-03-01T16:12:14;4.55;;;1.02;;
26612;SDS011;14248;57.652;11.908;2023-03-01T16:14:41;4.22;;;0.73;;
26612;SDS011;14248;57.652;11.908;2023-03-01T16:17:08;4.07;;;1.02;;
26612;SDS011;14248;57.652;11.908;2023-03-01T16:19:35;2.63;;;0.65;;
26612;SDS011;14248;57.652;11.908;2023-03-01T16:22:02;4.28;;;0.80;;
26612;SDS011;14248;57.652;11.908;2023-03-01T16:24:28;2.45;;;0.60;;
26612;SDS011;14248;57.652;11.908;2023-03-01T16:26:55;4.15;;;0.85;;
26612;SDS011;14248;57.652;11.908;2023-03-01T16:29:21;5.38;;;0.95;;
26612;SDS011;14248;57.652;11.908;2023-03-01T16:31:48;1.73;;;0.75;;
26612;SDS011;14248;57.652;11.908;2023-03-01T16:34:14;2.08;;;0.82;;
26612;SDS011;14248;57.652;11.908;2023-03-01T16:36:41;5.43;;;0.68;;
26612;SDS011;14248;57.652;11.908;2023-03-01T16:39:08;4.80;;;0.63;;
26612;SDS011;14248;57.652;11.908;2023-03-01T16:41:36;1.52;;;0.52;;
26612;SDS011;14248;57.652;11.908;2023-03-01T16:44:02;3.80;;;0.60;;
26612;SDS011;14248;57.652;11.908;2023-03-01T16:46:28;5.75;;;0.70;;
26612;SDS011;14248;57.652;11.908;2023-03-01T16:48:54;4.13;;;0.70;;
26612;SDS011;14248;57.652;11.908;2023-03-01T16:51:21;6.88;;;0.88;;
26612;SDS011;14248;57.652;11.908;2023-03-01T16:53:47;0.93;;;0.50;;
26612;SDS011;14248;57.652;11.908;2023-03-01T16:56:17;3.63;;;0.75;;
26612;SDS011;14248;57.652;11.908;2023-03-01T16:58:44;4.50;;;0.60;;
26612;SDS011;14248;57.652;11.908;2023-03-01T17:01:17;4.60;;;0.55;;
26612;SDS011;14248;57.652;11.908;2023-03-01T17:03:44;6.03;;;0.70;;
26612;SDS011;14248;57.652;11.908;2023-03-01T17:06:13;1.23;;;0.60;;
26612;SDS011;14248;57.652;11.908;2023-03-01T17:08:39;2.97;;;1.13;;
26612;SDS011;14248;57.652;11.908;2023-03-01T17:11:06;1.88;;;0.55;;
26612;SDS011;14248;57.652;11.908;2023-03-01T17:13:33;1.73;;;0.52;;